Time;durP1;ratioP1;P1;durP2;ratioP2;P2;SDS_P1;SDS_P2;PMS_P1;PMS_P2;Temp;Humidity;BMP_temperature;BMP_pressure;BME280_temperature;BME280_humidity;BME280_pressure;Samples;Min_cycle;Max_cycle;Signal;HPM_P1;HPM_P2
2021/05/27 00:00:43;;;;;;;7.97;1.90;;;16.00;72.70;;;;;;5053846;28;20111;-68
2021/05/27 00:03:09;;;;;;;6.40;1.65;;;16.00;72.80;;;;;;5071698;28;20435;-68
2021/05/27 00:05:35;;;;;;;6.68;2.08;;;16.00;72.70;;;;;;5071619;28;20024;-68
2021/05/27 00:08:00;;;;;;;5.88;1.85;;;16.00;72.80;;;;;;5053614;28;20032;-68
2021/05/27 00:10:29;;;;;;;7.47;2.00;;;16.00;72.80;;;;;;5053155;28;20028;-69
2021/05/27 00:12:55;;;;;;;7.18;2.00;;;16.00;72.80;;;;;;5053680;28;20433;-68
2021/05/27 00:15:23;;;;;;;5.65;1.70;;;16.00;72.80;;;;;;5071462;28;20565;-69
2021/05/27 00:17:48;;;;;;;4.88;1.73;;;16.00;72.80;;;;;;5071511;28;20034;-68
2021/05/27 00:20:15;;;;;;;4.35;1.77;;;15.90;72.90;;;;;;5053636;28;20025;-67
2021/05/27 00:22:40;;;;;;;5.45;1.80;;;15.90;72.80;;;;;;5071358;28;20033;-67
2021/05/27 00:25:08;;;;;;;3.97;1.52;;;15.90;72.90;;;;;;5053115;28;20122;-68
2021/05/27 00:27:34;;;;;;;3.72;1.58;;;16.00;72.90;;;;;;5071472;28;20024;-68
2021/05/27 00:30:00;;;;;;;5.68;1.70;;;15.90;72.90;;;;;;5073943;28;20089;-68
2021/05/27 00:32:26;;;;;;;3.33;1.60;;;16.00;72.90;;;;;;5075698;28;20114;-69
2021/05/27 00:34:51;;;;;;;3.75;1.52;;;15.90;72.90;;;;;;5075345;28;20032;-67
2021/05/27 00:37:17;;;;;;;4.30;1.88;;;15.90;72.90;;;;;;5075470;28;20425;-67
2021/05/27 00:39:43;;;;;;;3.63;1.73;;;15.90;72.90;;;;;;5075504;28;20060;-67
2021/05/27 00:42:09;;;;;;;4.82;1.80;;;15.90;72.90;;;;;;5057535;28;20101;-67
2021/05/27 00:44:34;;;;;;;6.53;1.88;;;15.90;72.80;;;;;;5075425;28;20029;-67
2021/05/27 00:47:02;;;;;;;4.38;1.70;;;15.90;72.80;;;;;;5075608;28;20104;-70
2021/05/27 00:49:28;;;;;;;4.88;1.50;;;15.90;72.80;;;;;;5075274;28;20401;-67
2021/05/27 00:51:55;;;;;;;4.35;1.60;;;15.90;72.80;;;;;;5057361;28;20074;-67
2021/05/27 00:54:20;;;;;;;5.32;1.88;;;15.90;72.80;;;;;;5074909;28;20498;-67
2021/05/27 00:56:51;;;;;;;3.85;1.50;;;15.90;72.80;;;;;;5057279;28;20029;-67
2021/05/27 00:59:17;;;;;;;4.07;1.60;;;15.90;72.80;;;;;;5075200;28;20032;-68
2021/05/27 01:01:44;;;;;;;5.30;2.05;;;15.90;72.80;;;;;;5057214;28;20668;-68
2021/05/27 01:04:10;;;;;;;3.38;1.38;;;15.90;72.90;;;;;;5074716;28;20013;-68
2021/05/27 01:06:36;;;;;;;5.00;1.75;;;15.90;72.80;;;;;;5055295;28;20043;-68
2021/05/27 01:09:03;;;;;;;5.35;1.67;;;15.90;73.00;;;;;;5056247;28;20075;-68
2021/05/27 01:11:29;;;;;;;4.30;1.55;;;15.90;72.90;;;;;;5073518;28;20025;-68
2021/05/27 01:13:54;;;;;;;7.78;1.52;;;15.90;73.10;;;;;;5074609;28;20028;-68
2021/05/27 01:16:22;;;;;;;3.90;1.58;;;15.90;73.00;;;;;;5074629;28;20403;-68
2021/05/27 01:18:48;;;;;;;4.35;1.50;;;15.90;73.00;;;;;;5056841;28;20308;-67
2021/05/27 01:21:15;;;;;;;3.03;1.50;;;15.80;73.10;;;;;;5074785;28;20064;-68
2021/05/27 01:23:40;;;;;;;3.67;1.33;;;15.90;73.10;;;;;;5074388;28;20059;-68
2021/05/27 01:26:12;;;;;;;5.18;1.40;;;15.90;73.10;;;;;;5065641;28;20020;-67
2021/05/27 01:28:41;;;;;;;3.47;1.35;;;15.90;73.20;;;;;;5076746;28;20084;-67
2021/05/27 01:31:08;;;;;;;4.15;1.38;;;15.90;73.20;;;;;;5094760;28;20066;-67
2021/05/27 01:33:35;;;;;;;3.20;1.45;;;15.80;73.20;;;;;;5094410;28;20020;-67
2021/05/27 01:36:00;;;;;;;4.07;1.40;;;15.80;73.80;;;;;;5094719;28;20027;-68
2021/05/27 01:38:29;;;;;;;3.22;1.33;;;15.80;73.30;;;;;;5094690;28;20424;-67
2021/05/27 01:40:56;;;;;;;4.65;1.23;;;15.80;73.30;;;;;;5094621;28;20117;-67
2021/05/27 01:43:22;;;;;;;5.10;1.20;;;15.80;73.40;;;;;;5094405;28;20497;-66
2021/05/27 01:45:49;;;;;;;3.60;1.58;;;15.80;73.40;;;;;;5094315;28;20075;-68
2021/05/27 01:48:14;;;;;;;6.35;1.38;;;15.80;73.40;;;;;;5076294;28;20020;-68
2021/05/27 01:50:41;;;;;;;4.88;1.48;;;15.80;73.40;;;;;;5094358;28;20032;-68
2021/05/27 01:53:07;;;;;;;3.63;1.30;;;15.80;73.40;;;;;;5094481;28;20052;-72
2021/05/27 01:55:34;;;;;;;2.20;1.20;;;15.80;73.40;;;;;;5094159;28;20054;-67
2021/05/27 01:58:00;;;;;;;4.90;1.30;;;15.80;73.40;;;;;;5094318;28;20028;-67
2021/05/27 02:00:27;;;;;;;3.05;1.20;;;15.80;73.30;;;;;;5076109;28;20030;-68
2021/05/27 02:02:53;;;;;;;4.40;1.42;;;15.80;73.30;;;;;;5076047;28;20024;-68
2021/05/27 02:05:18;;;;;;;4.80;1.52;;;15.80;73.30;;;;;;5075709;28;20024;-67
2021/05/27 02:07:44;;;;;;;2.65;1.20;;;15.80;73.40;;;;;;5094124;28;20508;-67
2021/05/27 02:10:11;;;;;;;4.05;1.38;;;15.80;73.30;;;;;;5093482;28;20506;-67
2021/05/27 02:12:37;;;;;;;2.80;1.17;;;15.70;73.20;;;;;;5093967;28;20035;-68
2021/05/27 02:15:07;;;;;;;2.85;1.02;;;15.80;73.30;;;;;;5088147;28;20024;-66
2021/05/27 02:17:33;;;;;;;4.05;1.25;;;15.70;73.30;;;;;;5054688;28;20062;-67
2021/05/27 02:19:59;;;;;;;3.30;1.20;;;15.80;73.40;;;;;;5055256;28;20020;-67
2021/05/27 02:22:25;;;;;;;5.00;1.20;;;15.70;73.40;;;;;;5055592;28;20036;-68
2021/05/27 02:24:50;;;;;;;1.83;1.10;;;15.70;73.30;;;;;;5073318;28;20064;-68
2021/05/27 02:27:16;;;;;;;3.40;1.20;;;15.70;73.40;;;;;;5073988;28;20074;-68
2021/05/27 02:29:42;;;;;;;2.20;1.17;;;15.70;73.40;;;;;;5093522;28;20024;-67
2021/05/27 02:32:08;;;;;;;5.50;1.33;;;15.70;73.30;;;;;;5093654;28;20089;-68
2021/05/27 02:34:33;;;;;;;3.33;1.08;;;15.70;73.20;;;;;;5093353;28;20024;-67
2021/05/27 02:36:59;;;;;;;4.88;1.40;;;15.70;73.20;;;;;;5093564;28;20386;-68
2021/05/27 02:39:25;;;;;;;5.05;1.20;;;15.70;73.40;;;;;;5075366;28;20170;-67
2021/05/27 02:41:50;;;;;;;6.05;1.10;;;15.70;73.40;;;;;;5078781;28;20031;-68
2021/05/27 02:44:16;;;;;;;5.75;1.50;;;15.70;73.50;;;;;;5072735;28;20101;-67
2021/05/27 02:46:41;;;;;;;6.72;1.35;;;15.70;73.60;;;;;;5073077;28;20099;-67
2021/05/27 02:49:07;;;;;;;7.55;1.20;;;15.70;73.60;;;;;;5073046;28;20112;-68
2021/05/27 02:51:33;;;;;;;8.65;1.40;;;15.70;73.60;;;;;;5072601;28;20035;-69
2021/05/27 02:53:58;;;;;;;6.68;1.25;;;15.70;73.70;;;;;;5072637;28;20056;-67
2021/05/27 02:56:25;;;;;;;4.80;1.10;;;15.70;73.70;;;;;;5054974;28;20025;-68
2021/05/27 02:58:50;;;;;;;5.82;1.10;;;15.70;73.80;;;;;;5072803;28;20024;-67
2021/05/27 03:01:16;;;;;;;1.98;1.13;;;15.70;73.70;;;;;;5072893;28;20033;-67
2021/05/27 03:03:42;;;;;;;2.03;1.00;;;15.70;73.70;;;;;;5054573;28;20021;-67
2021/05/27 03:06:07;;;;;;;3.70;1.30;;;15.70;73.60;;;;;;5072810;28;20078;-68
2021/05/27 03:08:33;;;;;;;2.90;1.08;;;15.70;73.60;;;;;;5072149;28;20115;-67
2021/05/27 03:10:59;;;;;;;3.67;1.17;;;15.70;73.60;;;;;;5072640;28;20099;-67
2021/05/27 03:13:25;;;;;;;5.78;1.10;;;15.70;73.50;;;;;;5072484;28;20083;-67
2021/05/27 03:15:50;;;;;;;11.30;1.33;;;15.70;73.40;;;;;;5054580;28;20030;-68
2021/05/27 03:18:17;;;;;;;4.30;1.00;;;15.70;73.50;;;;;;5075572;22;20463;-63
2021/05/27 03:20:43;;;;;;;3.35;1.20;;;15.70;73.50;;;;;;5093768;28;20020;-64
2021/05/27 03:23:08;;;;;;;4.88;1.45;;;15.60;73.50;;;;;;5103881;28;20073;-65
2021/05/27 03:25:34;;;;;;;7.45;1.30;;;15.60;73.60;;;;;;5095379;28;20024;-64
2021/05/27 03:28:00;;;;;;;4.45;1.25;;;15.60;73.50;;;;;;5092394;28;20032;-64
2021/05/27 03:30:26;;;;;;;3.75;1.02;;;15.60;73.40;;;;;;5092413;28;20111;-64
2021/05/27 03:32:52;;;;;;;2.95;0.90;;;15.60;73.30;;;;;;5092511;28;20016;-63
2021/05/27 03:35:18;;;;;;;7.82;1.00;;;15.60;73.30;;;;;;5092133;28;20386;-63
2021/05/27 03:37:44;;;;;;;4.10;1.10;;;15.60;73.20;;;;;;5092245;28;20020;-64
2021/05/27 03:40:13;;;;;;;3.15;1.00;;;15.60;73.20;;;;;;5092374;28;20028;-65
2021/05/27 03:42:50;;;;;;;3.78;0.80;;;15.60;73.20;;;;;;5074151;28;20031;-64
2021/05/27 03:45:18;;;;;;;10.70;1.27;;;15.60;73.10;;;;;;5091667;28;20421;-64
2021/05/27 03:47:44;;;;;;;2.13;0.98;;;15.60;73.10;;;;;;5092147;28;20028;-63
2021/05/27 03:50:12;;;;;;;3.60;1.10;;;15.60;73.10;;;;;;5092106;28;20043;-65
2021/05/27 03:52:38;;;;;;;4.53;1.10;;;15.60;73.00;;;;;;5092142;28;20111;-63
2021/05/27 03:55:05;;;;;;;2.83;1.00;;;15.60;73.00;;;;;;5073564;28;20052;-63
2021/05/27 03:57:31;;;;;;;3.47;1.05;;;15.60;73.00;;;;;;5091797;28;20570;-63
2021/05/27 04:02:44;;;;;;;2.05;0.93;;;15.60;72.90;;;;;;5092047;28;20046;-65
2021/05/27 04:07:55;;;;;;;2.70;1.00;;;15.60;73.00;;;;;;5092183;28;20504;-64
2021/05/27 04:10:21;;;;;;;2.75;0.93;;;15.60;72.90;;;;;;5073119;28;20020;-64
2021/05/27 04:12:47;;;;;;;1.85;0.98;;;15.60;72.90;;;;;;5091267;28;20112;-65
2021/05/27 04:15:25;;;;;;;2.38;1.05;;;15.60;72.80;;;;;;5091313;28;20491;-64
2021/05/27 04:17:59;;;;;;;2.97;1.00;;;15.60;73.40;;;;;;5090466;28;20458;-63
2021/05/27 04:20:28;;;;;;;2.47;1.00;;;15.70;72.90;;;;;;5091787;28;20595;-63
2021/05/27 04:22:54;;;;;;;3.03;0.90;;;15.60;72.90;;;;;;5091387;28;20027;-63
2021/05/27 04:25:21;;;;;;;4.53;1.10;;;15.60;72.80;;;;;;5053182;28;20438;-64
2021/05/27 04:27:47;;;;;;;1.92;1.00;;;15.60;72.80;;;;;;5053511;28;20020;-63
2021/05/27 04:30:16;;;;;;;1.67;0.80;;;15.60;72.80;;;;;;5053560;28;20391;-63
2021/05/27 04:35:18;;;;;;;2.55;0.90;;;15.60;72.80;;;;;;5085600;28;20027;-64
2021/05/27 04:37:44;;;;;;;5.57;1.00;;;15.60;72.80;;;;;;5082275;28;20036;-66
2021/05/27 04:40:10;;;;;;;2.45;1.08;;;15.60;73.70;;;;;;5058512;28;20115;-65
2021/05/27 04:42:36;;;;;;;1.88;0.82;;;15.70;73.20;;;;;;5074982;28;20046;-64
2021/05/27 04:45:01;;;;;;;3.25;1.00;;;15.70;72.90;;;;;;5084456;28;20393;-64
2021/05/27 04:47:27;;;;;;;4.22;1.10;;;15.70;72.80;;;;;;5084939;28;20028;-65
2021/05/27 04:49:52;;;;;;;2.78;0.95;;;15.70;72.80;;;;;;5066627;28;20476;-64
2021/05/27 04:52:18;;;;;;;3.88;1.10;;;15.70;72.80;;;;;;5084976;28;20024;-65
2021/05/27 04:54:43;;;;;;;2.25;0.80;;;15.70;72.80;;;;;;5071990;28;20027;-64
2021/05/27 04:57:09;;;;;;;2.25;0.80;;;15.70;72.80;;;;;;5065242;28;20467;-65
2021/05/27 04:59:34;;;;;;;2.75;0.93;;;15.70;72.80;;;;;;5066290;28;20042;-68
2021/05/27 05:02:00;;;;;;;5.20;1.38;;;15.70;73.00;;;;;;5066718;28;20085;-64
2021/05/27 05:04:25;;;;;;;3.05;1.20;;;15.70;73.10;;;;;;5084899;28;20032;-65
2021/05/27 05:06:51;;;;;;;6.57;1.58;;;15.70;73.30;;;;;;5084194;28;20020;-64
2021/05/27 05:09:16;;;;;;;5.80;1.30;;;15.70;73.50;;;;;;5084317;28;20481;-65
2021/05/27 05:11:42;;;;;;;4.30;1.27;;;15.70;73.80;;;;;;5084082;28;20040;-64
2021/05/27 05:14:07;;;;;;;18.60;1.92;;;15.70;73.70;;;;;;5075470;28;20028;-71
2021/05/27 05:16:33;;;;;;;12.25;1.42;;;15.80;74.00;;;;;;5076346;28;20048;-65
2021/05/27 05:18:58;;;;;;;9.48;1.30;;;15.80;74.40;;;;;;5082093;28;20047;-64
2021/05/27 05:21:24;;;;;;;11.25;1.70;;;15.80;74.30;;;;;;5087503;28;20028;-66
2021/05/27 05:23:49;;;;;;;11.73;1.52;;;15.90;75.20;;;;;;5087563;28;20405;-64
2021/05/27 05:26:15;;;;;;;14.75;1.60;;;15.90;75.20;;;;;;5088545;28;20412;-65
2021/05/27 05:28:40;;;;;;;8.85;1.30;;;15.90;74.80;;;;;;5085868;28;20032;-65
2021/05/27 05:31:06;;;;;;;9.07;1.35;;;15.90;74.70;;;;;;5073808;28;20024;-64
2021/05/27 05:33:31;;;;;;;11.60;1.58;;;15.90;74.40;;;;;;5077201;28;20024;-64
2021/05/27 05:35:57;;;;;;;10.30;1.60;;;15.90;74.50;;;;;;5058452;28;20017;-64
2021/05/27 05:38:22;;;;;;;3.90;1.23;;;15.90;74.50;;;;;;5068485;28;20031;-65
2021/05/27 05:40:48;;;;;;;7.47;1.13;;;15.90;74.50;;;;;;5087347;28;20071;-65
2021/05/27 05:43:13;;;;;;;8.43;1.42;;;15.90;74.30;;;;;;5087189;28;20475;-64
2021/05/27 05:45:39;;;;;;;5.68;1.20;;;15.90;74.30;;;;;;5086878;28;20032;-65
2021/05/27 05:48:07;;;;;;;6.82;1.30;;;15.90;74.20;;;;;;5088145;28;20040;-64
2021/05/27 05:50:49;;;;;;;6.70;1.65;;;15.80;74.10;;;;;;5087976;28;20028;-64
2021/05/27 05:53:24;;;;;;;5.90;1.20;;;15.90;74.10;;;;;;5088319;28;20024;-65
2021/05/27 05:55:52;;;;;;;6.05;1.30;;;15.80;74.10;;;;;;5087822;28;20069;-65
2021/05/27 05:58:18;;;;;;;3.75;1.13;;;15.80;74.00;;;;;;5087928;28;20055;-65
2021/05/27 06:00:47;;;;;;;3.85;1.30;;;15.80;74.10;;;;;;5087903;28;20066;-65
2021/05/27 06:03:13;;;;;;;3.10;1.17;;;15.80;74.20;;;;;;5060409;28;20425;-66
2021/05/27 06:05:39;;;;;;;6.57;1.23;;;15.80;73.90;;;;;;5075368;28;20029;-65
2021/05/27 06:08:04;;;;;;;4.72;1.60;;;15.80;74.00;;;;;;5080616;28;20032;-64
2021/05/27 06:10:30;;;;;;;5.25;1.38;;;15.80;74.20;;;;;;5087445;28;20029;-65
2021/05/27 06:12:56;;;;;;;4.57;1.42;;;15.80;74.40;;;;;;5087118;28;20409;-64
2021/05/27 06:15:24;;;;;;;4.15;1.20;;;15.80;74.60;;;;;;5087198;28;20024;-65
2021/05/27 06:17:51;;;;;;;6.40;1.70;;;15.80;74.70;;;;;;5087610;28;20055;-65
2021/05/27 06:20:18;;;;;;;5.80;1.30;;;15.80;74.70;;;;;;5062867;28;20058;-65
2021/05/27 06:22:44;;;;;;;6.28;1.55;;;15.80;74.40;;;;;;5058446;28;20024;-65
2021/05/27 06:25:10;;;;;;;3.63;1.30;;;15.80;74.30;;;;;;5076369;28;20069;-65
2021/05/27 06:27:36;;;;;;;4.35;1.05;;;15.80;74.50;;;;;;5076890;28;20113;-65
2021/05/27 06:30:03;;;;;;;4.93;1.27;;;15.80;74.50;;;;;;5075770;28;20498;-67
2021/05/27 06:32:29;;;;;;;6.88;1.15;;;15.80;74.30;;;;;;5076736;28;20106;-65
2021/05/27 06:34:55;;;;;;;6.80;1.10;;;15.80;74.50;;;;;;5080259;28;20078;-63
2021/05/27 06:37:21;;;;;;;6.68;1.40;;;15.80;74.90;;;;;;5093408;28;20024;-64
2021/05/27 06:39:47;;;;;;;5.13;1.30;;;15.80;75.10;;;;;;5093407;28;20020;-64
2021/05/27 06:42:13;;;;;;;2.45;0.95;;;15.80;74.90;;;;;;5075182;28;20436;-65
2021/05/27 06:44:39;;;;;;;4.55;1.33;;;15.80;75.10;;;;;;5093061;28;20493;-65
2021/05/27 06:47:04;;;;;;;4.72;1.30;;;15.80;75.10;;;;;;5093365;28;20030;-65
2021/05/27 06:49:30;;;;;;;3.00;1.10;;;15.80;75.10;;;;;;5074984;28;20024;-64
2021/05/27 06:51:56;;;;;;;6.22;1.30;;;15.80;75.20;;;;;;5093310;28;20031;-64
2021/05/27 06:54:23;;;;;;;6.15;1.35;;;15.80;75.20;;;;;;5092969;28;20055;-65
2021/05/27 06:56:49;;;;;;;3.88;1.08;;;15.80;75.30;;;;;;5093071;28;20046;-64
2021/05/27 06:59:15;;;;;;;7.63;1.67;;;15.80;75.30;;;;;;5093049;28;20020;-64
2021/05/27 07:01:40;;;;;;;2.85;1.02;;;15.80;75.20;;;;;;5093086;28;20035;-64
2021/05/27 07:04:06;;;;;;;5.07;1.48;;;15.80;75.20;;;;;;5092806;28;20026;-64
2021/05/27 07:06:31;;;;;;;5.35;1.40;;;15.80;75.20;;;;;;5092991;28;20027;-66
2021/05/27 07:08:57;;;;;;;6.43;1.52;;;15.80;75.20;;;;;;5093002;28;20028;-64
2021/05/27 07:11:22;;;;;;;5.15;1.50;;;15.80;75.20;;;;;;5092294;28;20032;-64
2021/05/27 07:13:48;;;;;;;6.22;1.70;;;15.80;75.20;;;;;;5092498;28;20016;-64
2021/05/27 07:16:14;;;;;;;5.95;1.38;;;15.80;75.20;;;;;;5092802;28;20035;-64
2021/05/27 07:18:40;;;;;;;4.07;1.42;;;15.90;75.20;;;;;;5092587;28;20527;-65
2021/05/27 07:21:05;;;;;;;6.05;1.52;;;15.90;75.20;;;;;;5092727;28;20027;-64
2021/05/27 07:23:31;;;;;;;4.72;1.50;;;15.90;75.00;;;;;;5092325;28;20062;-64
2021/05/27 07:26:00;;;;;;;5.18;1.55;;;15.90;74.90;;;;;;5092589;28;20055;-64
2021/05/27 07:28:25;;;;;;;6.88;1.40;;;15.90;74.60;;;;;;5074276;28;20032;-64
2021/05/27 07:30:51;;;;;;;4.70;1.65;;;15.90;74.60;;;;;;5074314;28;20123;-66
2021/05/27 07:33:18;;;;;;;5.47;1.60;;;15.90;74.50;;;;;;5074387;28;20027;-64
2021/05/27 07:35:44;;;;;;;5.60;1.45;;;15.90;74.30;;;;;;5092198;28;20099;-64
2021/05/27 07:38:11;;;;;;;5.03;1.40;;;16.00;74.20;;;;;;5092179;28;20051;-64
2021/05/27 07:40:37;;;;;;;5.45;1.58;;;16.00;74.20;;;;;;5092419;28;20032;-64
2021/05/27 07:43:02;;;;;;;4.38;1.77;;;15.90;74.30;;;;;;5092355;28;20111;-64
2021/05/27 07:45:28;;;;;;;6.32;1.67;;;16.00;74.20;;;;;;5073896;28;20030;-65
2021/05/27 07:47:54;;;;;;;4.15;1.50;;;16.00;74.20;;;;;;5092203;28;20486;-66
2021/05/27 07:50:22;;;;;;;3.72;1.48;;;15.90;74.10;;;;;;5074020;28;20454;-64
2021/05/27 07:52:52;;;;;;;4.88;1.63;;;16.00;74.00;;;;;;5092057;28;20024;-64
2021/05/27 07:55:18;;;;;;;4.22;1.23;;;15.90;73.70;;;;;;5091849;28;20012;-64
2021/05/27 07:57:44;;;;;;;6.03;1.63;;;16.00;73.80;;;;;;5092030;28;20065;-64
2021/05/27 08:00:11;;;;;;;4.57;1.30;;;16.00;73.70;;;;;;5074018;28;20114;-64
2021/05/27 08:02:36;;;;;;;2.25;1.17;;;16.00;73.60;;;;;;5074092;28;20031;-64
2021/05/27 08:05:02;;;;;;;3.72;1.20;;;16.00;73.50;;;;;;5091630;28;20031;-64
2021/05/27 08:07:28;;;;;;;4.30;1.27;;;16.00;73.50;;;;;;5073780;28;20611;-65
2021/05/27 08:09:53;;;;;;;4.90;1.40;;;16.00;73.50;;;;;;5091866;28;20031;-65
2021/05/27 08:12:19;;;;;;;4.00;1.40;;;16.00;73.50;;;;;;5091390;28;20452;-64
2021/05/27 08:14:45;;;;;;;7.32;1.90;;;16.00;73.50;;;;;;5091585;28;20020;-64
2021/05/27 08:17:11;;;;;;;6.53;1.70;;;16.00;73.50;;;;;;5091804;28;20543;-64
2021/05/27 08:19:36;;;;;;;6.30;1.60;;;16.00;73.50;;;;;;5091697;28;20035;-64
2021/05/27 08:22:02;;;;;;;6.22;1.80;;;16.00;73.50;;;;;;5091798;28;20020;-65
2021/05/27 08:24:28;;;;;;;5.97;1.77;;;16.00;73.60;;;;;;5091469;28;20024;-65
2021/05/27 08:26:53;;;;;;;6.90;1.83;;;16.00;73.50;;;;;;5073558;28;20028;-63
2021/05/27 08:29:19;;;;;;;5.68;1.63;;;16.00;73.90;;;;;;5091727;28;20093;-65
2021/05/27 08:31:44;;;;;;;4.07;1.45;;;16.00;73.30;;;;;;5091476;28;20024;-64
2021/05/27 08:34:10;;;;;;;3.47;1.40;;;16.10;73.30;;;;;;5073298;28;20035;-64
2021/05/27 08:36:38;;;;;;;3.88;1.38;;;16.10;73.10;;;;;;5091708;28;20073;-64
2021/05/27 08:39:05;;;;;;;5.70;1.63;;;16.10;73.00;;;;;;5091572;28;20362;-64
2021/05/27 08:41:30;;;;;;;3.53;1.42;;;16.10;72.80;;;;;;5091664;28;20040;-66
2021/05/27 08:43:56;;;;;;;4.85;1.33;;;16.20;72.60;;;;;;5091274;28;20021;-64
2021/05/27 08:46:22;;;;;;;5.53;1.50;;;16.20;72.50;;;;;;5091514;28;20052;-64
2021/05/27 08:48:48;;;;;;;4.78;1.40;;;16.20;72.50;;;;;;5091480;28;20043;-64
2021/05/27 08:51:15;;;;;;;3.20;1.17;;;16.20;72.30;;;;;;5094128;28;20024;-64
2021/05/27 08:53:41;;;;;;;4.40;1.33;;;16.20;72.30;;;;;;5095268;28;20024;-66
2021/05/27 08:56:07;;;;;;;5.43;1.40;;;16.20;72.20;;;;;;5095551;28;20066;-64
2021/05/27 08:58:32;;;;;;;6.13;1.50;;;16.20;72.30;;;;;;5095483;28;20504;-64
2021/05/27 09:00:58;;;;;;;3.25;1.30;;;16.20;72.30;;;;;;5095334;28;20020;-64
2021/05/27 09:03:40;;;;;;;3.85;1.30;;;16.20;72.20;;;;;;5095283;28;20036;-64
2021/05/27 09:06:06;;;;;;;2.95;1.15;;;16.20;72.30;;;;;;5095328;28;20082;-65
2021/05/27 09:08:35;;;;;;;2.85;1.08;;;16.20;72.10;;;;;;5095226;28;20028;-66
2021/05/27 09:11:04;;;;;;;3.50;1.20;;;16.20;72.30;;;;;;5076332;28;20430;-64
2021/05/27 09:13:30;;;;;;;3.75;1.10;;;16.20;72.20;;;;;;5076750;28;20048;-65
2021/05/27 09:16:06;;;;;;;4.35;1.30;;;16.10;72.30;;;;;;5095125;28;20082;-64
2021/05/27 09:18:37;;;;;;;5.05;1.33;;;16.10;72.30;;;;;;5078175;28;20036;-64
2021/05/27 09:21:04;;;;;;;2.58;1.08;;;16.20;72.30;;;;;;5076878;28;20484;-65
2021/05/27 09:23:30;;;;;;;2.92;1.38;;;16.10;72.30;;;;;;5076563;28;20032;-64
2021/05/27 09:26:07;;;;;;;3.72;1.30;;;16.20;72.30;;;;;;5094967;28;20023;-64
2021/05/27 09:28:32;;;;;;;3.97;1.30;;;16.20;72.20;;;;;;5094884;28;20028;-65
2021/05/27 09:31:00;;;;;;;3.80;1.25;;;16.20;72.10;;;;;;5094800;28;20028;-65
2021/05/27 09:33:32;;;;;;;3.80;1.30;;;16.20;72.00;;;;;;5094760;28;20405;-62
2021/05/27 09:36:12;;;;;;;2.60;1.13;;;16.20;71.70;;;;;;5094716;28;20053;-66
2021/05/27 09:38:46;;;;;;;4.13;1.10;;;16.30;71.40;;;;;;5094728;28;20027;-64
2021/05/27 09:41:18;;;;;;;3.28;1.00;;;16.30;70.90;;;;;;5094607;28;20028;-66
2021/05/27 09:43:52;;;;;;;2.63;1.00;;;16.30;70.90;;;;;;5076299;28;20405;-65
2021/05/27 09:46:20;;;;;;;4.25;1.20;;;16.40;70.90;;;;;;5094592;28;20031;-64
2021/05/27 09:48:46;;;;;;;2.15;1.00;;;16.40;70.60;;;;;;5076240;28;20043;-64
2021/05/27 09:51:24;;;;;;;3.88;1.20;;;16.30;70.60;;;;;;5094448;28;20428;-65
2021/05/27 09:53:55;;;;;;;2.22;0.90;;;16.30;70.60;;;;;;5076047;28;20111;-64
2021/05/27 09:56:37;;;;;;;2.70;1.23;;;16.30;70.70;;;;;;5094378;28;20021;-65
2021/05/27 09:59:04;;;;;;;2.83;0.90;;;16.30;70.70;;;;;;5094132;28;20020;-64
2021/05/27 10:01:30;;;;;;;4.45;1.15;;;16.30;70.60;;;;;;5093463;28;20385;-63
2021/05/27 10:04:16;;;;;;;2.03;1.00;;;16.30;70.60;;;;;;5093717;28;20036;-65
2021/05/27 10:06:42;;;;;;;3.53;1.10;;;16.30;70.50;;;;;;5076107;28;20024;-65
2021/05/27 10:09:10;;;;;;;2.83;1.27;;;16.40;70.30;;;;;;5075905;28;20039;-64
2021/05/27 10:11:37;;;;;;;1.42;0.90;;;16.40;70.50;;;;;;5093411;28;20024;-66
2021/05/27 10:14:03;;;;;;;3.22;1.00;;;16.40;70.30;;;;;;5093973;28;20020;-65
2021/05/27 10:16:28;;;;;;;2.17;0.85;;;16.40;70.30;;;;;;5094083;28;20078;-64
2021/05/27 10:18:55;;;;;;;3.40;1.10;;;16.40;70.20;;;;;;5075549;28;20493;-64
2021/05/27 10:21:22;;;;;;;3.15;1.10;;;16.40;70.10;;;;;;5093879;28;20509;-64
2021/05/27 10:23:49;;;;;;;2.40;0.82;;;16.40;70.00;;;;;;5092954;28;20130;-65
2021/05/27 10:26:15;;;;;;;3.20;1.10;;;16.40;69.80;;;;;;5080397;28;20066;-64
2021/05/27 10:28:50;;;;;;;3.05;1.00;;;16.40;70.00;;;;;;5068763;28;20024;-66
2021/05/27 10:31:20;;;;;;;1.35;0.80;;;16.50;69.90;;;;;;5067363;28;20036;-64
2021/05/27 10:33:46;;;;;;;2.60;1.08;;;16.40;69.80;;;;;;5068443;28;20303;-64
2021/05/27 10:36:12;;;;;;;1.05;0.70;;;16.50;69.60;;;;;;5068629;28;20299;-64
2021/05/27 10:38:38;;;;;;;2.67;1.00;;;16.50;69.50;;;;;;5068665;28;20024;-65
2021/05/27 10:41:28;;;;;;;1.70;0.90;;;16.60;69.50;;;;;;5068670;28;20078;-67
2021/05/27 10:44:03;;;;;;;1.42;0.80;;;16.60;69.50;;;;;;5062656;28;20394;-66
2021/05/27 10:46:44;;;;;;;2.97;1.05;;;16.60;69.50;;;;;;5078907;28;20063;-65
2021/05/27 10:49:10;;;;;;;2.58;1.02;;;16.70;69.10;;;;;;5066724;28;20020;-65
2021/05/27 10:51:46;;;;;;;3.50;0.90;;;16.70;69.30;;;;;;5081291;28;20115;-65
2021/05/27 10:54:27;;;;;;;2.92;1.00;;;16.60;69.20;;;;;;5058997;28;20031;-65
2021/05/27 10:56:52;;;;;;;2.58;0.90;;;16.70;69.60;;;;;;5079132;28;20056;-65
2021/05/27 10:59:18;;;;;;;1.85;0.90;;;16.70;69.10;;;;;;5062224;28;20063;-65
2021/05/27 11:01:44;;;;;;;2.60;0.98;;;16.70;69.00;;;;;;5077530;28;20024;-66
2021/05/27 11:04:30;;;;;;;3.13;0.95;;;16.70;69.20;;;;;;5054932;28;20035;-65
2021/05/27 11:07:13;;;;;;;2.33;0.98;;;16.70;69.00;;;;;;5077544;28;20431;-64
2021/05/27 11:09:39;;;;;;;2.55;0.90;;;16.70;69.10;;;;;;5074217;28;20082;-66
2021/05/27 11:12:08;;;;;;;3.50;0.90;;;16.70;69.80;;;;;;5086023;28;20060;-64
2021/05/27 11:14:36;;;;;;;3.05;0.80;;;16.70;69.10;;;;;;5075698;28;20032;-63
2021/05/27 11:17:34;;;;;;;2.30;0.88;;;16.60;70.20;;;;;;5082112;28;20059;-65
2021/05/27 11:20:27;;;;;;;4.00;0.95;;;16.70;69.20;;;;;;5074313;28;20034;-63
2021/05/27 11:22:59;;;;;;;1.50;0.80;;;16.70;70.30;;;;;;5056397;28;20123;-62
2021/05/27 11:25:29;;;;;;;3.70;1.17;;;16.60;69.30;;;;;;5085188;28;20024;-65
2021/05/27 11:28:02;;;;;;;1.85;0.98;;;16.70;69.50;;;;;;5076046;28;20035;-65
2021/05/27 11:30:37;;;;;;;4.40;1.00;;;16.70;69.40;;;;;;5063670;28;20075;-64
2021/05/27 11:33:04;;;;;;;6.28;1.00;;;16.70;69.80;;;;;;5079981;28;20760;-64
2021/05/27 11:35:39;;;;;;;2.88;1.02;;;16.80;69.30;;;;;;5084079;28;20088;-64
2021/05/27 11:38:39;;;;;;;4.30;1.10;;;16.90;69.00;;;;;;5084087;28;20032;-62
2021/05/27 11:41:07;;;;;;;3.47;1.10;;;17.00;68.90;;;;;;5051573;28;20444;-65
2021/05/27 11:43:39;;;;;;;2.90;1.00;;;17.00;68.50;;;;;;5081628;28;20487;-65
2021/05/27 11:46:20;;;;;;;4.05;0.80;;;17.00;68.50;;;;;;5073543;28;20206;-64
2021/05/27 11:51:22;;;;;;;11.77;1.23;;;17.10;68.50;;;;;;5084953;28;20113;-64
2021/05/27 11:53:58;;;;;;;5.82;1.00;;;17.10;68.20;;;;;;5052110;28;20490;-66
2021/05/27 11:56:46;;;;;;;2.58;0.90;;;17.20;68.10;;;;;;5057690;28;20028;-61
2021/05/27 11:59:18;;;;;;;3.80;0.90;;;17.20;67.90;;;;;;5071495;28;20024;-64
2021/05/27 12:02:04;;;;;;;;;;;17.20;68.20;;;;;;5083414;28;20066;-64
2021/05/27 12:04:31;;;;;;;4.88;1.02;;;17.20;67.80;;;;;;5063671;28;19931;-65
2021/05/27 12:07:17;;;;;;;4.38;0.98;;;17.30;67.70;;;;;;5083958;28;20036;-61
2021/05/27 12:09:49;;;;;;;11.55;1.05;;;17.30;67.70;;;;;;5066862;28;20576;-64
2021/05/27 12:12:24;;;;;;;3.20;0.98;;;17.20;67.70;;;;;;5067875;28;20020;-64
2021/05/27 12:14:55;;;;;;;2.33;0.75;;;17.30;67.90;;;;;;5070905;28;20016;-68
2021/05/27 12:17:28;;;;;;;4.05;1.00;;;17.30;67.90;;;;;;5070467;28;20417;-64
2021/05/27 12:20:01;;;;;;;3.88;0.90;;;17.30;67.60;;;;;;5061749;28;20047;-66
2021/05/27 12:22:46;;;;;;;5.72;1.15;;;17.30;67.80;;;;;;5064844;28;20036;-65
2021/05/27 12:25:12;;;;;;;2.47;0.90;;;17.40;67.60;;;;;;5064792;28;20548;-61
2021/05/27 12:27:45;;;;;;;4.35;1.17;;;17.40;67.70;;;;;;5084471;28;20028;-64
2021/05/27 12:30:23;;;;;;;3.85;1.10;;;17.40;67.70;;;;;;5083821;28;20598;-62
2021/05/27 12:32:50;;;;;;;4.43;0.90;;;17.50;67.30;;;;;;5066304;28;20024;-64
2021/05/27 12:35:26;;;;;;;4.22;1.08;;;17.50;67.20;;;;;;5079691;28;20512;-64
2021/05/27 12:37:55;;;;;;;4.60;1.13;;;17.50;67.00;;;;;;5065878;28;20025;-64
2021/05/27 12:40:24;;;;;;;6.50;1.00;;;17.50;67.10;;;;;;5070462;28;20089;-65
2021/05/27 12:42:52;;;;;;;7.13;0.93;;;17.50;67.00;;;;;;5079557;28;20028;-65
2021/05/27 12:45:37;;;;;;;2.42;0.90;;;17.60;67.10;;;;;;5083815;28;20024;-65
2021/05/27 12:48:05;;;;;;;2.30;0.82;;;17.60;66.90;;;;;;5084199;28;20047;-64
2021/05/27 12:50:34;;;;;;;2.78;1.02;;;17.60;66.90;;;;;;5083698;28;20051;-65
2021/05/27 12:53:00;;;;;;;2.22;0.85;;;17.60;66.80;;;;;;5084575;28;20447;-65
2021/05/27 12:55:31;;;;;;;3.15;0.90;;;17.70;66.50;;;;;;5066288;28;20555;-66
2021/05/27 12:58:06;;;;;;;5.70;1.00;;;17.70;66.50;;;;;;5071238;28;20161;-64
2021/05/27 13:00:48;;;;;;;3.00;0.93;;;17.70;66.30;;;;;;5084664;28;20111;-63